sensor_id;sensor_type;location;lat;lon;timestamp;temperature;humidity
68922;DHT22;55959;51.244;5.724;2022-08-19T00:01:53;24.10;58.20
68922;DHT22;55959;51.244;5.724;2022-08-19T00:04:29;24.00;58.30
68922;DHT22;55959;51.244;5.724;2022-08-19T00:06:58;24.00;58.40
68922;DHT22;55959;51.244;5.724;2022-08-19T00:09:26;23.90;58.50
68922;DHT22;55959;51.244;5.724;2022-08-19T00:11:53;23.90;58.60
68922;DHT22;55959;51.244;5.724;2022-08-19T00:14:21;23.80;58.60
68922;DHT22;55959;51.244;5.724;2022-08-19T00:16:48;23.80;58.50
68922;DHT22;55959;51.244;5.724;2022-08-19T00:19:16;23.80;58.50
68922;DHT22;55959;51.244;5.724;2022-08-19T00:21:42;23.80;58.60
68922;DHT22;55959;51.244;5.724;2022-08-19T00:24:09;23.70;58.60
68922;DHT22;55959;51.244;5.724;2022-08-19T00:26:37;23.70;58.80
68922;DHT22;55959;51.244;5.724;2022-08-19T00:29:05;23.70;58.90
68922;DHT22;55959;51.244;5.724;2022-08-19T00:31:33;23.60;59.60
68922;DHT22;55959;51.244;5.724;2022-08-19T00:34:00;23.60;59.10
68922;DHT22;55959;51.244;5.724;2022-08-19T00:36:26;23.60;59.20
68922;DHT22;55959;51.244;5.724;2022-08-19T00:38:54;23.50;59.20
68922;DHT22;55959;51.244;5.724;2022-08-19T00:41:21;23.50;59.30
68922;DHT22;55959;51.244;5.724;2022-08-19T00:44:03;23.50;59.40
68922;DHT22;55959;51.244;5.724;2022-08-19T00:46:37;23.50;59.60
68922;DHT22;55959;51.244;5.724;2022-08-19T00:49:25;23.40;59.60
68922;DHT22;55959;51.244;5.724;2022-08-19T00:52:02;23.40;59.60
68922;DHT22;55959;51.244;5.724;2022-08-19T00:54:31;23.30;59.70
68922;DHT22;55959;51.244;5.724;2022-08-19T00:56:59;23.30;59.90
68922;DHT22;55959;51.244;5.724;2022-08-19T00:59:28;23.30;59.90
68922;DHT22;55959;51.244;5.724;2022-08-19T01:01:53;23.30;59.90
68922;DHT22;55959;51.244;5.724;2022-08-19T01:04:19;23.20;60.00
68922;DHT22;55959;51.244;5.724;2022-08-19T01:06:45;23.20;60.00
68922;DHT22;55959;51.244;5.724;2022-08-19T01:09:11;23.20;60.10
68922;DHT22;55959;51.244;5.724;2022-08-19T01:11:40;23.10;60.10
68922;DHT22;55959;51.244;5.724;2022-08-19T01:14:09;23.10;60.10
68922;DHT22;55959;51.244;5.724;2022-08-19T01:16:36;23.10;60.30
68922;DHT22;55959;51.244;5.724;2022-08-19T01:19:06;23.00;60.50
68922;DHT22;55959;51.244;5.724;2022-08-19T01:21:48;23.00;60.60
68922;DHT22;55959;51.244;5.724;2022-08-19T01:24:18;23.00;60.70
68922;DHT22;55959;51.244;5.724;2022-08-19T01:26:44;23.00;60.80
68922;DHT22;55959;51.244;5.724;2022-08-19T01:29:11;22.90;60.90
68922;DHT22;55959;51.244;5.724;2022-08-19T01:31:37;22.90;60.80
68922;DHT22;55959;51.244;5.724;2022-08-19T01:34:05;22.80;60.80
68922;DHT22;55959;51.244;5.724;2022-08-19T01:36:38;22.80;61.00
68922;DHT22;55959;51.244;5.724;2022-08-19T01:39:11;22.80;60.90
68922;DHT22;55959;51.244;5.724;2022-08-19T01:41:38;22.70;61.00
68922;DHT22;55959;51.244;5.724;2022-08-19T01:44:06;22.70;61.20
68922;DHT22;55959;51.244;5.724;2022-08-19T01:46:33;22.70;61.50
68922;DHT22;55959;51.244;5.724;2022-08-19T01:48:59;22.60;61.50
68922;DHT22;55959;51.244;5.724;2022-08-19T01:51:26;22.60;61.60
68922;DHT22;55959;51.244;5.724;2022-08-19T01:53:53;22.50;61.70
68922;DHT22;55959;51.244;5.724;2022-08-19T01:56:20;22.50;61.70
68922;DHT22;55959;51.244;5.724;2022-08-19T01:58:53;22.50;61.90
68922;DHT22;55959;51.244;5.724;2022-08-19T02:01:21;22.40;62.10
68922;DHT22;55959;51.244;5.724;2022-08-19T02:03:47;22.40;62.10
68922;DHT22;55959;51.244;5.724;2022-08-19T02:06:13;22.40;62.10
68922;DHT22;55959;51.244;5.724;2022-08-19T02:08:39;22.40;62.30
68922;DHT22;55959;51.244;5.724;2022-08-19T02:11:06;22.30;62.40
68922;DHT22;55959;51.244;5.724;2022-08-19T02:13:32;22.30;62.40
68922;DHT22;55959;51.244;5.724;2022-08-19T02:15:59;22.20;62.40
68922;DHT22;55959;51.244;5.724;2022-08-19T02:18:25;22.20;62.50
68922;DHT22;55959;51.244;5.724;2022-08-19T02:20:52;22.20;62.50
68922;DHT22;55959;51.244;5.724;2022-08-19T02:23:18;22.20;62.70
68922;DHT22;55959;51.244;5.724;2022-08-19T02:25:48;22.10;62.70
68922;DHT22;55959;51.244;5.724;2022-08-19T02:28:14;22.10;62.70
68922;DHT22;55959;51.244;5.724;2022-08-19T02:30:41;22.00;62.60
68922;DHT22;55959;51.244;5.724;2022-08-19T02:33:07;22.00;62.70
68922;DHT22;55959;51.244;5.724;2022-08-19T02:35:33;22.00;62.70
68922;DHT22;55959;51.244;5.724;2022-08-19T02:38:00;22.00;62.70
68922;DHT22;55959;51.244;5.724;2022-08-19T02:40:53;21.90;62.60
68922;DHT22;55959;51.244;5.724;2022-08-19T02:43:31;21.90;62.80
68922;DHT22;55959;51.244;5.724;2022-08-19T02:46:21;21.90;63.00
68922;DHT22;55959;51.244;5.724;2022-08-19T02:48:50;21.90;63.30
68922;DHT22;55959;51.244;5.724;2022-08-19T02:51:18;21.80;63.50
68922;DHT22;55959;51.244;5.724;2022-08-19T02:53:46;21.80;64.00
68922;DHT22;55959;51.244;5.724;2022-08-19T02:56:12;21.70;64.30
68922;DHT22;55959;51.244;5.724;2022-08-19T02:58:39;21.70;64.40
68922;DHT22;55959;51.244;5.724;2022-08-19T03:01:05;21.70;65.00
68922;DHT22;55959;51.244;5.724;2022-08-19T03:03:32;21.70;64.80
68922;DHT22;55959;51.244;5.724;2022-08-19T03:06:15;21.60;64.80
68922;DHT22;55959;51.244;5.724;2022-08-19T03:08:46;21.60;65.00
68922;DHT22;55959;51.244;5.724;2022-08-19T03:11:25;21.60;65.20
68922;DHT22;55959;51.244;5.724;2022-08-19T03:13:54;21.60;65.50
68922;DHT22;55959;51.244;5.724;2022-08-19T03:16:23;21.60;65.60
68922;DHT22;55959;51.244;5.724;2022-08-19T03:18:51;21.50;65.60
68922;DHT22;55959;51.244;5.724;2022-08-19T03:21:22;21.50;65.80
68922;DHT22;55959;51.244;5.724;2022-08-19T03:23:49;21.50;65.80
68922;DHT22;55959;51.244;5.724;2022-08-19T03:26:18;21.50;65.90
68922;DHT22;55959;51.244;5.724;2022-08-19T03:28:45;21.50;66.00
68922;DHT22;55959;51.244;5.724;2022-08-19T03:31:17;21.50;66.10
68922;DHT22;55959;51.244;5.724;2022-08-19T03:33:44;21.50;66.10
68922;DHT22;55959;51.244;5.724;2022-08-19T03:36:17;21.50;66.20
68922;DHT22;55959;51.244;5.724;2022-08-19T03:38:47;21.50;66.20
68922;DHT22;55959;51.244;5.724;2022-08-19T03:41:16;21.50;66.10
68922;DHT22;55959;51.244;5.724;2022-08-19T03:43:45;21.50;66.10
68922;DHT22;55959;51.244;5.724;2022-08-19T03:46:23;21.50;66.20
68922;DHT22;55959;51.244;5.724;2022-08-19T03:48:52;21.40;66.20
68922;DHT22;55959;51.244;5.724;2022-08-19T03:53:51;21.40;66.30
68922;DHT22;55959;51.244;5.724;2022-08-19T03:56:17;21.40;66.30
68922;DHT22;55959;51.244;5.724;2022-08-19T03:58:44;21.40;66.40
68922;DHT22;55959;51.244;5.724;2022-08-19T04:01:20;21.40;66.40
68922;DHT22;55959;51.244;5.724;2022-08-19T04:03:47;21.40;66.50
68922;DHT22;55959;51.244;5.724;2022-08-19T04:06:19;21.30;66.40
68922;DHT22;55959;51.244;5.724;2022-08-19T04:08:48;21.30;66.50
68922;DHT22;55959;51.244;5.724;2022-08-19T04:11:18;21.30;66.60
68922;DHT22;55959;51.244;5.724;2022-08-19T04:13:47;21.30;66.60
68922;DHT22;55959;51.244;5.724;2022-08-19T04:16:13;21.30;66.50
68922;DHT22;55959;51.244;5.724;2022-08-19T04:18:40;21.20;66.40
68922;DHT22;55959;51.244;5.724;2022-08-19T04:21:06;21.30;66.60
68922;DHT22;55959;51.244;5.724;2022-08-19T04:23:34;21.20;66.80
68922;DHT22;55959;51.244;5.724;2022-08-19T04:26:02;21.20;66.80
68922;DHT22;55959;51.244;5.724;2022-08-19T04:28:28;21.20;66.90
68922;DHT22;55959;51.244;5.724;2022-08-19T04:30:54;21.20;66.80
68922;DHT22;55959;51.244;5.724;2022-08-19T04:33:23;21.20;66.80
68922;DHT22;55959;51.244;5.724;2022-08-19T04:35:51;21.20;66.80
68922;DHT22;55959;51.244;5.724;2022-08-19T04:38:20;21.20;67.00
68922;DHT22;55959;51.244;5.724;2022-08-19T04:40:51;21.20;67.20
68922;DHT22;55959;51.244;5.724;2022-08-19T04:43:38;21.20;67.20
68922;DHT22;55959;51.244;5.724;2022-08-19T04:46:09;21.20;67.20
68922;DHT22;55959;51.244;5.724;2022-08-19T04:48:36;21.10;67.10
68922;DHT22;55959;51.244;5.724;2022-08-19T04:51:07;21.10;67.10
68922;DHT22;55959;51.244;5.724;2022-08-19T04:53:36;21.10;67.20
68922;DHT22;55959;51.244;5.724;2022-08-19T04:56:08;21.10;67.20
68922;DHT22;55959;51.244;5.724;2022-08-19T04:58:41;21.00;67.30
68922;DHT22;55959;51.244;5.724;2022-08-19T05:01:11;21.00;67.30
68922;DHT22;55959;51.244;5.724;2022-08-19T05:03:39;21.00;67.40
68922;DHT22;55959;51.244;5.724;2022-08-19T05:06:13;21.00;67.40
68922;DHT22;55959;51.244;5.724;2022-08-19T05:08:41;21.00;67.50
68922;DHT22;55959;51.244;5.724;2022-08-19T05:11:37;20.90;67.60
68922;DHT22;55959;51.244;5.724;2022-08-19T05:14:05;20.90;67.70
68922;DHT22;55959;51.244;5.724;2022-08-19T05:16:35;20.90;67.80
68922;DHT22;55959;51.244;5.724;2022-08-19T05:19:01;20.90;67.90
68922;DHT22;55959;51.244;5.724;2022-08-19T05:21:45;20.90;68.10
68922;DHT22;55959;51.244;5.724;2022-08-19T05:24:30;20.80;68.20
68922;DHT22;55959;51.244;5.724;2022-08-19T05:26:57;20.80;68.30
68922;DHT22;55959;51.244;5.724;2022-08-19T05:29:25;20.80;68.40
68922;DHT22;55959;51.244;5.724;2022-08-19T05:31:52;20.80;68.50
68922;DHT22;55959;51.244;5.724;2022-08-19T05:34:20;20.90;68.70
68922;DHT22;55959;51.244;5.724;2022-08-19T05:36:49;20.90;68.90
68922;DHT22;55959;51.244;5.724;2022-08-19T05:39:24;20.90;69.20
68922;DHT22;55959;51.244;5.724;2022-08-19T05:41:58;20.90;69.30
68922;DHT22;55959;51.244;5.724;2022-08-19T05:44:28;20.90;69.50
68922;DHT22;55959;51.244;5.724;2022-08-19T05:46:57;20.90;69.70
68922;DHT22;55959;51.244;5.724;2022-08-19T05:49:26;20.90;69.90
68922;DHT22;55959;51.244;5.724;2022-08-19T05:51:52;21.00;70.20
68922;DHT22;55959;51.244;5.724;2022-08-19T05:54:20;21.10;70.30
68922;DHT22;55959;51.244;5.724;2022-08-19T05:56:49;21.10;70.30
68922;DHT22;55959;51.244;5.724;2022-08-19T05:59:18;21.20;70.40
68922;DHT22;55959;51.244;5.724;2022-08-19T06:01:48;21.20;70.30
68922;DHT22;55959;51.244;5.724;2022-08-19T06:04:16;21.30;70.20
68922;DHT22;55959;51.244;5.724;2022-08-19T06:06:45;21.30;70.20
68922;DHT22;55959;51.244;5.724;2022-08-19T06:09:12;21.40;70.30
68922;DHT22;55959;51.244;5.724;2022-08-19T06:11:40;21.40;70.20
68922;DHT22;55959;51.244;5.724;2022-08-19T06:14:12;21.50;70.40
68922;DHT22;55959;51.244;5.724;2022-08-19T06:16:41;21.60;70.20
68922;DHT22;55959;51.244;5.724;2022-08-19T06:19:10;21.60;70.00
68922;DHT22;55959;51.244;5.724;2022-08-19T06:21:40;21.70;69.90
68922;DHT22;55959;51.244;5.724;2022-08-19T06:24:08;21.70;69.80
68922;DHT22;55959;51.244;5.724;2022-08-19T06:26:38;21.70;69.50
68922;DHT22;55959;51.244;5.724;2022-08-19T06:29:09;21.80;70.20
68922;DHT22;55959;51.244;5.724;2022-08-19T06:31:36;21.80;69.20
68922;DHT22;55959;51.244;5.724;2022-08-19T06:34:03;21.80;69.30
68922;DHT22;55959;51.244;5.724;2022-08-19T06:36:33;21.80;69.40
68922;DHT22;55959;51.244;5.724;2022-08-19T06:39:05;22.00;69.30
68922;DHT22;55959;51.244;5.724;2022-08-19T06:41:43;22.00;69.10
68922;DHT22;55959;51.244;5.724;2022-08-19T06:44:10;22.00;68.80
68922;DHT22;55959;51.244;5.724;2022-08-19T06:46:38;22.10;68.90
68922;DHT22;55959;51.244;5.724;2022-08-19T06:49:04;22.10;68.60
68922;DHT22;55959;51.244;5.724;2022-08-19T06:51:30;22.20;68.30
68922;DHT22;55959;51.244;5.724;2022-08-19T06:53:58;22.20;68.00
68922;DHT22;55959;51.244;5.724;2022-08-19T06:56:27;22.30;68.20
68922;DHT22;55959;51.244;5.724;2022-08-19T06:59:02;22.40;68.50
68922;DHT22;55959;51.244;5.724;2022-08-19T07:01:37;22.40;68.50
68922;DHT22;55959;51.244;5.724;2022-08-19T07:04:06;22.60;68.60
68922;DHT22;55959;51.244;5.724;2022-08-19T07:06:34;22.70;68.70
68922;DHT22;55959;51.244;5.724;2022-08-19T07:09:04;22.90;68.30
68922;DHT22;55959;51.244;5.724;2022-08-19T07:11:31;23.00;67.40
68922;DHT22;55959;51.244;5.724;2022-08-19T07:13:58;23.10;66.60
68922;DHT22;55959;51.244;5.724;2022-08-19T07:16:25;23.20;66.30
68922;DHT22;55959;51.244;5.724;2022-08-19T07:18:51;23.20;65.90
68922;DHT22;55959;51.244;5.724;2022-08-19T07:21:23;23.20;65.70
68922;DHT22;55959;51.244;5.724;2022-08-19T07:23:54;23.30;65.70
68922;DHT22;55959;51.244;5.724;2022-08-19T07:26:22;23.30;65.30
68922;DHT22;55959;51.244;5.724;2022-08-19T07:28:50;23.30;64.90
68922;DHT22;55959;51.244;5.724;2022-08-19T07:31:20;23.30;64.70
68922;DHT22;55959;51.244;5.724;2022-08-19T07:33:50;23.30;64.70
68922;DHT22;55959;51.244;5.724;2022-08-19T07:36:21;23.30;64.90
68922;DHT22;55959;51.244;5.724;2022-08-19T07:38:50;23.30;64.90
68922;DHT22;55959;51.244;5.724;2022-08-19T07:41:22;23.30;64.80
68922;DHT22;55959;51.244;5.724;2022-08-19T07:43:50;23.30;64.90
68922;DHT22;55959;51.244;5.724;2022-08-19T07:46:17;23.30;65.00
68922;DHT22;55959;51.244;5.724;2022-08-19T07:48:46;23.30;65.10
68922;DHT22;55959;51.244;5.724;2022-08-19T07:51:18;23.30;65.20
68922;DHT22;55959;51.244;5.724;2022-08-19T07:53:46;23.30;65.00
68922;DHT22;55959;51.244;5.724;2022-08-19T07:56:14;23.30;65.10
68922;DHT22;55959;51.244;5.724;2022-08-19T07:58:43;23.40;65.30
68922;DHT22;55959;51.244;5.724;2022-08-19T08:01:16;23.40;65.30
68922;DHT22;55959;51.244;5.724;2022-08-19T08:03:43;23.50;65.50
68922;DHT22;55959;51.244;5.724;2022-08-19T08:06:28;23.50;65.30
68922;DHT22;55959;51.244;5.724;2022-08-19T08:09:16;23.50;65.20
68922;DHT22;55959;51.244;5.724;2022-08-19T08:11:57;23.50;65.20
68922;DHT22;55959;51.244;5.724;2022-08-19T08:14:29;23.60;65.10
68922;DHT22;55959;51.244;5.724;2022-08-19T08:16:57;23.70;65.10
68922;DHT22;55959;51.244;5.724;2022-08-19T08:19:25;23.70;64.90
68922;DHT22;55959;51.244;5.724;2022-08-19T08:21:56;23.80;64.90
68922;DHT22;55959;51.244;5.724;2022-08-19T08:24:23;23.80;64.90
68922;DHT22;55959;51.244;5.724;2022-08-19T08:26:50;23.90;64.60
68922;DHT22;55959;51.244;5.724;2022-08-19T08:29:16;23.90;64.40
68922;DHT22;55959;51.244;5.724;2022-08-19T08:31:43;24.00;64.30
68922;DHT22;55959;51.244;5.724;2022-08-19T08:34:11;24.00;63.90
68922;DHT22;55959;51.244;5.724;2022-08-19T08:36:39;24.10;63.70
68922;DHT22;55959;51.244;5.724;2022-08-19T08:39:17;24.10;63.60
68922;DHT22;55959;51.244;5.724;2022-08-19T08:41:58;24.20;63.40
68922;DHT22;55959;51.244;5.724;2022-08-19T08:47:04;24.30;63.10
68922;DHT22;55959;51.244;5.724;2022-08-19T08:49:51;24.40;62.50
68922;DHT22;55959;51.244;5.724;2022-08-19T08:52:33;24.40;62.50
68922;DHT22;55959;51.244;5.724;2022-08-19T08:55:13;24.50;62.10
68922;DHT22;55959;51.244;5.724;2022-08-19T08:57:55;24.50;61.90
68922;DHT22;55959;51.244;5.724;2022-08-19T09:00:29;24.60;61.40
68922;DHT22;55959;51.244;5.724;2022-08-19T09:02:58;24.60;60.70
68922;DHT22;55959;51.244;5.724;2022-08-19T09:05:43;24.70;61.30
68922;DHT22;55959;51.244;5.724;2022-08-19T09:08:18;24.70;60.30
68922;DHT22;55959;51.244;5.724;2022-08-19T09:11:05;24.70;60.00
68922;DHT22;55959;51.244;5.724;2022-08-19T09:13:56;24.70;59.90
68922;DHT22;55959;51.244;5.724;2022-08-19T09:16:24;24.80;59.70
68922;DHT22;55959;51.244;5.724;2022-08-19T09:18:56;24.90;59.60
68922;DHT22;55959;51.244;5.724;2022-08-19T09:21:25;24.90;59.20
68922;DHT22;55959;51.244;5.724;2022-08-19T09:23:52;24.90;58.80
68922;DHT22;55959;51.244;5.724;2022-08-19T09:26:22;24.90;58.60
68922;DHT22;55959;51.244;5.724;2022-08-19T09:28:50;25.00;58.40
68922;DHT22;55959;51.244;5.724;2022-08-19T09:31:21;25.00;57.90
68922;DHT22;55959;51.244;5.724;2022-08-19T09:33:48;25.10;57.70
68922;DHT22;55959;51.244;5.724;2022-08-19T09:36:17;25.00;57.80
68922;DHT22;55959;51.244;5.724;2022-08-19T09:38:45;25.10;58.10
68922;DHT22;55959;51.244;5.724;2022-08-19T09:41:17;25.10;57.80
68922;DHT22;55959;51.244;5.724;2022-08-19T09:43:46;25.20;57.40
68922;DHT22;55959;51.244;5.724;2022-08-19T09:46:14;25.20;57.40
68922;DHT22;55959;51.244;5.724;2022-08-19T09:48:42;25.30;57.10
68922;DHT22;55959;51.244;5.724;2022-08-19T09:51:14;25.30;56.90
68922;DHT22;55959;51.244;5.724;2022-08-19T09:53:46;25.30;56.90
68922;DHT22;55959;51.244;5.724;2022-08-19T09:56:17;25.30;56.90
68922;DHT22;55959;51.244;5.724;2022-08-19T09:58:44;25.40;56.80
68922;DHT22;55959;51.244;5.724;2022-08-19T10:01:16;25.40;56.60
68922;DHT22;55959;51.244;5.724;2022-08-19T10:03:52;25.50;56.40
68922;DHT22;55959;51.244;5.724;2022-08-19T10:06:22;25.50;56.50
68922;DHT22;55959;51.244;5.724;2022-08-19T10:08:50;25.50;56.50
68922;DHT22;55959;51.244;5.724;2022-08-19T10:11:19;25.60;56.10
68922;DHT22;55959;51.244;5.724;2022-08-19T10:13:46;25.60;56.20
68922;DHT22;55959;51.244;5.724;2022-08-19T10:16:16;25.70;55.80
68922;DHT22;55959;51.244;5.724;2022-08-19T10:18:44;25.70;56.00
68922;DHT22;55959;51.244;5.724;2022-08-19T10:21:24;25.70;55.80
68922;DHT22;55959;51.244;5.724;2022-08-19T10:23:55;25.80;55.40
68922;DHT22;55959;51.244;5.724;2022-08-19T10:26:30;25.90;55.50
68922;DHT22;55959;51.244;5.724;2022-08-19T10:28:59;25.90;54.60
68922;DHT22;55959;51.244;5.724;2022-08-19T10:31:28;26.00;54.20
68922;DHT22;55959;51.244;5.724;2022-08-19T10:33:55;26.00;54.10
68922;DHT22;55959;51.244;5.724;2022-08-19T10:36:33;26.10;54.20
68922;DHT22;55959;51.244;5.724;2022-08-19T10:39:04;26.20;54.20
68922;DHT22;55959;51.244;5.724;2022-08-19T10:41:34;26.20;54.40
68922;DHT22;55959;51.244;5.724;2022-08-19T10:44:06;26.30;54.50
68922;DHT22;55959;51.244;5.724;2022-08-19T10:46:36;26.40;54.40
68922;DHT22;55959;51.244;5.724;2022-08-19T10:49:05;26.40;53.90
68922;DHT22;55959;51.244;5.724;2022-08-19T10:51:31;26.50;53.60
68922;DHT22;55959;51.244;5.724;2022-08-19T10:54:16;26.60;53.80
68922;DHT22;55959;51.244;5.724;2022-08-19T10:56:43;26.60;53.60
68922;DHT22;55959;51.244;5.724;2022-08-19T10:59:20;26.70;53.40
68922;DHT22;55959;51.244;5.724;2022-08-19T11:01:48;26.70;53.00
68922;DHT22;55959;51.244;5.724;2022-08-19T11:04:16;26.70;53.30
68922;DHT22;55959;51.244;5.724;2022-08-19T11:06:47;26.80;53.20
68922;DHT22;55959;51.244;5.724;2022-08-19T11:09:15;26.90;53.20
68922;DHT22;55959;51.244;5.724;2022-08-19T11:11:42;26.90;53.00
68922;DHT22;55959;51.244;5.724;2022-08-19T11:14:11;27.00;52.60
68922;DHT22;55959;51.244;5.724;2022-08-19T11:16:38;27.00;53.10
68922;DHT22;55959;51.244;5.724;2022-08-19T11:19:05;27.00;52.70
68922;DHT22;55959;51.244;5.724;2022-08-19T11:21:38;27.00;52.50
68922;DHT22;55959;51.244;5.724;2022-08-19T11:24:09;27.10;52.40
68922;DHT22;55959;51.244;5.724;2022-08-19T11:26:38;27.10;52.40
68922;DHT22;55959;51.244;5.724;2022-08-19T11:29:06;27.10;52.30
68922;DHT22;55959;51.244;5.724;2022-08-19T11:31:37;27.10;51.90
68922;DHT22;55959;51.244;5.724;2022-08-19T11:34:07;27.20;52.00
68922;DHT22;55959;51.244;5.724;2022-08-19T11:36:37;27.20;52.30
68922;DHT22;55959;51.244;5.724;2022-08-19T11:39:06;27.30;52.10
68922;DHT22;55959;51.244;5.724;2022-08-19T11:41:32;27.40;52.10
68922;DHT22;55959;51.244;5.724;2022-08-19T11:43:58;27.40;52.10
68922;DHT22;55959;51.244;5.724;2022-08-19T11:46:26;27.50;52.00
68922;DHT22;55959;51.244;5.724;2022-08-19T11:48:57;27.50;51.50
68922;DHT22;55959;51.244;5.724;2022-08-19T11:51:25;27.60;51.90
68922;DHT22;55959;51.244;5.724;2022-08-19T11:53:53;27.60;51.70
68922;DHT22;55959;51.244;5.724;2022-08-19T11:56:20;27.70;51.30
68922;DHT22;55959;51.244;5.724;2022-08-19T11:58:46;27.80;51.50
68922;DHT22;55959;51.244;5.724;2022-08-19T12:01:14;27.80;50.70
68922;DHT22;55959;51.244;5.724;2022-08-19T12:03:43;27.90;50.50
68922;DHT22;55959;51.244;5.724;2022-08-19T12:06:21;28.00;50.60
68922;DHT22;55959;51.244;5.724;2022-08-19T12:08:54;28.00;50.20
68922;DHT22;55959;51.244;5.724;2022-08-19T12:11:21;28.10;50.40
68922;DHT22;55959;51.244;5.724;2022-08-19T12:13:49;28.20;50.00
68922;DHT22;55959;51.244;5.724;2022-08-19T12:16:22;28.20;50.10
68922;DHT22;55959;51.244;5.724;2022-08-19T12:18:50;28.20;49.80
68922;DHT22;55959;51.244;5.724;2022-08-19T12:21:19;28.30;48.80
68922;DHT22;55959;51.244;5.724;2022-08-19T12:23:51;28.30;49.00
68922;DHT22;55959;51.244;5.724;2022-08-19T12:26:17;28.40;49.50
68922;DHT22;55959;51.244;5.724;2022-08-19T12:28:43;28.40;50.00
68922;DHT22;55959;51.244;5.724;2022-08-19T12:31:10;28.50;50.30
68922;DHT22;55959;51.244;5.724;2022-08-19T12:33:40;28.50;50.10
68922;DHT22;55959;51.244;5.724;2022-08-19T12:36:08;28.50;49.40
68922;DHT22;55959;51.244;5.724;2022-08-19T12:38:37;28.60;49.80
68922;DHT22;55959;51.244;5.724;2022-08-19T12:41:05;28.60;50.10
68922;DHT22;55959;51.244;5.724;2022-08-19T12:43:35;28.60;50.30
68922;DHT22;55959;51.244;5.724;2022-08-19T12:46:02;28.70;50.30
68922;DHT22;55959;51.244;5.724;2022-08-19T12:48:29;28.70;50.20
68922;DHT22;55959;51.244;5.724;2022-08-19T12:50:56;28.80;50.10
68922;DHT22;55959;51.244;5.724;2022-08-19T12:53:23;28.80;50.10
68922;DHT22;55959;51.244;5.724;2022-08-19T12:55:57;28.80;50.20
68922;DHT22;55959;51.244;5.724;2022-08-19T12:58:27;28.90;50.40
68922;DHT22;55959;51.244;5.724;2022-08-19T13:00:54;28.80;50.40
68922;DHT22;55959;51.244;5.724;2022-08-19T13:03:20;28.90;50.20
68922;DHT22;55959;51.244;5.724;2022-08-19T13:05:52;28.90;50.00
68922;DHT22;55959;51.244;5.724;2022-08-19T13:08:18;28.90;49.70
68922;DHT22;55959;51.244;5.724;2022-08-19T13:10:44;28.80;50.00
68922;DHT22;55959;51.244;5.724;2022-08-19T13:13:10;28.80;50.30
68922;DHT22;55959;51.244;5.724;2022-08-19T13:15:38;28.80;50.50
68922;DHT22;55959;51.244;5.724;2022-08-19T13:18:06;28.90;50.80
68922;DHT22;55959;51.244;5.724;2022-08-19T13:20:35;28.90;50.80
68922;DHT22;55959;51.244;5.724;2022-08-19T13:23:02;28.90;50.50
68922;DHT22;55959;51.244;5.724;2022-08-19T13:25:28;28.90;50.40
68922;DHT22;55959;51.244;5.724;2022-08-19T13:27:53;28.90;50.20
68922;DHT22;55959;51.244;5.724;2022-08-19T13:30:21;29.00;49.90
68922;DHT22;55959;51.244;5.724;2022-08-19T13:33:07;29.00;50.30
68922;DHT22;55959;51.244;5.724;2022-08-19T13:38:04;29.00;50.50
68922;DHT22;55959;51.244;5.724;2022-08-19T13:40:31;29.10;50.40
68922;DHT22;55959;51.244;5.724;2022-08-19T13:43:03;29.10;50.10
68922;DHT22;55959;51.244;5.724;2022-08-19T13:45:31;29.10;50.30
68922;DHT22;55959;51.244;5.724;2022-08-19T13:47:59;29.20;50.60
68922;DHT22;55959;51.244;5.724;2022-08-19T13:50:31;29.30;49.90
68922;DHT22;55959;51.244;5.724;2022-08-19T13:52:57;29.30;49.90
68922;DHT22;55959;51.244;5.724;2022-08-19T13:55:24;29.40;50.20
68922;DHT22;55959;51.244;5.724;2022-08-19T13:57:51;29.50;50.00
68922;DHT22;55959;51.244;5.724;2022-08-19T14:00:19;29.50;49.70
68922;DHT22;55959;51.244;5.724;2022-08-19T14:02:46;29.60;49.60
68922;DHT22;55959;51.244;5.724;2022-08-19T14:05:15;29.70;49.30
68922;DHT22;55959;51.244;5.724;2022-08-19T14:07:42;29.80;49.10
68922;DHT22;55959;51.244;5.724;2022-08-19T14:10:11;29.80;49.20
68922;DHT22;55959;51.244;5.724;2022-08-19T14:12:38;29.90;49.00
68922;DHT22;55959;51.244;5.724;2022-08-19T14:15:05;29.90;49.00
68922;DHT22;55959;51.244;5.724;2022-08-19T14:17:32;29.90;48.90
68922;DHT22;55959;51.244;5.724;2022-08-19T14:20:01;29.90;48.80
68922;DHT22;55959;51.244;5.724;2022-08-19T14:22:30;30.00;48.90
68922;DHT22;55959;51.244;5.724;2022-08-19T14:24:57;30.00;49.00
68922;DHT22;55959;51.244;5.724;2022-08-19T14:27:23;30.00;48.90
68922;DHT22;55959;51.244;5.724;2022-08-19T14:29:51;30.10;49.30
68922;DHT22;55959;51.244;5.724;2022-08-19T14:32:17;30.10;48.60
68922;DHT22;55959;51.244;5.724;2022-08-19T14:34:43;30.10;48.50
68922;DHT22;55959;51.244;5.724;2022-08-19T14:37:11;30.10;48.30
68922;DHT22;55959;51.244;5.724;2022-08-19T14:39:40;30.00;48.00
68922;DHT22;55959;51.244;5.724;2022-08-19T14:42:11;30.00;48.50
68922;DHT22;55959;51.244;5.724;2022-08-19T14:44:40;30.00;48.80
68922;DHT22;55959;51.244;5.724;2022-08-19T14:47:06;29.90;48.60
68922;DHT22;55959;51.244;5.724;2022-08-19T14:49:33;29.90;48.80
68922;DHT22;55959;51.244;5.724;2022-08-19T14:51:59;29.90;49.00
68922;DHT22;55959;51.244;5.724;2022-08-19T14:54:25;29.90;49.10
68922;DHT22;55959;51.244;5.724;2022-08-19T14:56:51;29.90;48.90
68922;DHT22;55959;51.244;5.724;2022-08-19T14:59:17;29.90;48.90
68922;DHT22;55959;51.244;5.724;2022-08-19T15:01:43;29.90;48.90
68922;DHT22;55959;51.244;5.724;2022-08-19T15:04:09;29.90;48.50
68922;DHT22;55959;51.244;5.724;2022-08-19T15:06:35;29.90;48.40
68922;DHT22;55959;51.244;5.724;2022-08-19T15:09:01;29.90;48.30
68922;DHT22;55959;51.244;5.724;2022-08-19T15:11:28;29.90;48.30
68922;DHT22;55959;51.244;5.724;2022-08-19T15:13:55;29.90;48.20
68922;DHT22;55959;51.244;5.724;2022-08-19T15:16:22;29.90;48.30
68922;DHT22;55959;51.244;5.724;2022-08-19T15:18:55;29.80;48.30
68922;DHT22;55959;51.244;5.724;2022-08-19T15:21:24;29.80;48.20
68922;DHT22;55959;51.244;5.724;2022-08-19T15:23:51;29.80;48.40
68922;DHT22;55959;51.244;5.724;2022-08-19T15:26:19;29.80;48.50
68922;DHT22;55959;51.244;5.724;2022-08-19T15:28:46;29.70;48.30
68922;DHT22;55959;51.244;5.724;2022-08-19T15:31:12;29.70;48.30
68922;DHT22;55959;51.244;5.724;2022-08-19T15:33:39;29.60;48.10
68922;DHT22;55959;51.244;5.724;2022-08-19T15:36:09;29.60;48.10
68922;DHT22;55959;51.244;5.724;2022-08-19T15:38:37;29.60;48.30
68922;DHT22;55959;51.244;5.724;2022-08-19T15:41:04;29.60;48.60
68922;DHT22;55959;51.244;5.724;2022-08-19T15:43:51;29.50;48.60
68922;DHT22;55959;51.244;5.724;2022-08-19T15:46:30;29.50;48.70
68922;DHT22;55959;51.244;5.724;2022-08-19T15:48:57;29.40;48.70
68922;DHT22;55959;51.244;5.724;2022-08-19T15:51:25;29.40;48.70
68922;DHT22;55959;51.244;5.724;2022-08-19T15:53:52;29.40;48.70